Time;durP1;ratioP1;P1;durP2;ratioP2;P2;SDS_P1;SDS_P2;PMS_P1;PMS_P2;Temp;Humidity;BMP_temperature;BMP_pressure;BME280_temperature;BME280_humidity;BME280_pressure;Samples;Min_cycle;Max_cycle;Signal;HPM_P1;HPM_P2
2021/12/14 00:01:30;;;;;;;17.80;11.15;;;;;;;7.53;100.00;102630.53;5025279;28;20581;-74
2021/12/14 00:03:59;;;;;;;16.23;9.07;;;;;;;7.42;100.00;102620.19;5026085;28;20041;-74
2021/12/14 00:06:25;;;;;;;13.52;9.05;;;;;;;7.40;100.00;102601.56;5024389;28;20036;-74
2021/12/14 00:08:57;;;;;;;16.30;9.30;;;;;;;7.31;100.00;102617.91;5029550;28;20025;-75
2021/12/14 00:11:36;;;;;;;15.07;10.13;;;;;;;7.54;100.00;102610.88;5026306;28;20029;-74
2021/12/14 00:16:49;;;;;;;21.52;10.27;;;;;;;7.47;100.00;102613.78;5028517;28;20623;-74
2021/12/14 00:19:16;;;;;;;13.38;8.57;;;;;;;7.50;100.00;102616.34;5026828;28;20084;-74
2021/12/14 00:21:47;;;;;;;14.73;9.80;;;;;;;7.60;100.00;102608.84;4993177;28;20029;-74
2021/12/14 00:24:14;;;;;;;15.88;8.07;;;;;;;7.27;100.00;102635.88;5029976;28;20040;-75
2021/12/14 00:26:55;;;;;;;13.93;8.30;;;;;;;7.04;100.00;102602.81;5026010;28;20033;-74
2021/12/14 00:29:30;;;;;;;15.95;8.52;;;;;;;7.33;100.00;102632.97;5026199;28;20668;-74
2021/12/14 00:31:58;;;;;;;13.00;8.65;;;;;;;7.24;100.00;102629.75;5026529;28;20017;-75
2021/12/14 00:34:35;;;;;;;13.52;8.52;;;;;;;7.26;100.00;102630.59;5025229;28;20164;-75
2021/12/14 00:37:03;;;;;;;13.60;8.52;;;;;;;7.09;100.00;102625.81;5026839;28;20120;-75
2021/12/14 00:39:28;;;;;;;13.73;8.57;;;;;;;7.07;100.00;102620.53;5010720;28;20064;-75
2021/12/14 00:41:54;;;;;;;16.40;10.05;;;;;;;7.11;100.00;102638.19;5008036;28;20113;-74
2021/12/14 00:44:21;;;;;;;16.77;10.43;;;;;;;7.10;100.00;102641.78;5029163;28;20400;-74
2021/12/14 00:46:46;;;;;;;16.80;9.52;;;;;;;7.24;100.00;102641.31;5027469;28;20025;-73
2021/12/14 00:49:15;;;;;;;13.70;8.73;;;;;;;7.04;100.00;102609.94;5026117;28;20029;-75
2021/12/14 00:51:41;;;;;;;17.52;9.82;;;;;;;7.24;100.00;102640.44;5010246;28;20025;-74
2021/12/14 00:54:11;;;;;;;13.15;8.63;;;;;;;7.16;100.00;102641.59;5026176;28;20354;-74
2021/12/14 00:56:37;;;;;;;15.05;9.32;;;;;;;7.08;100.00;102642.78;5027187;28;20108;-75
2021/12/14 00:59:06;;;;;;;16.70;9.85;;;;;;;7.23;100.00;102655.59;5024879;28;20112;-74
2021/12/14 01:01:41;;;;;;;16.60;9.55;;;;;;;7.05;100.00;102649.06;5026558;28;20044;-74
2021/12/14 01:04:11;;;;;;;14.35;8.85;;;;;;;7.11;100.00;102680.94;5028304;28;20065;-74
2021/12/14 01:06:45;;;;;;;11.98;8.27;;;;;;;7.25;100.00;102658.22;5026094;28;20108;-74
2021/12/14 01:09:14;;;;;;;16.83;9.68;;;;;;;7.20;100.00;102640.56;5010460;28;20017;-74
2021/12/14 01:11:44;;;;;;;16.63;10.35;;;;;;;7.33;100.00;102650.78;5029188;28;20026;-74
2021/12/14 01:14:30;;;;;;;18.27;11.20;;;;;;;7.47;100.00;102648.53;5027370;28;20021;-74
2021/12/14 01:17:12;;;;;;;17.95;9.95;;;;;;;7.24;100.00;102619.94;5029002;28;20492;-74
2021/12/14 01:19:49;;;;;;;13.63;8.38;;;;;;;7.34;100.00;102636.50;5025497;28;20072;-74
2021/12/14 01:22:45;;;;;;;15.68;9.25;;;;;;;7.13;100.00;102608.78;5029664;28;20473;-74
2021/12/14 01:25:29;;;;;;;17.10;9.45;;;;;;;7.31;100.00;102637.50;5026509;28;20136;-74
2021/12/14 01:28:07;;;;;;;13.68;7.72;;;;;;;7.18;100.00;102650.41;5014222;28;20075;-74
2021/12/14 01:31:04;;;;;;;14.38;8.63;;;;;;;7.01;100.00;102618.94;5009895;28;20102;-75
2021/12/14 01:33:31;;;;;;;19.67;11.02;;;;;;;7.25;100.00;102618.16;5027193;28;20029;-72
2021/12/14 01:35:57;;;;;;;17.60;9.00;;;;;;;7.16;100.00;102593.50;5028839;28;20128;-74
2021/12/14 01:40:58;;;;;;;18.23;9.02;;;;;;;7.18;100.00;102607.66;5008319;28;20393;-74
2021/12/14 01:43:40;;;;;;;17.70;10.48;;;;;;;7.45;100.00;102620.09;5026760;28;20392;-74
2021/12/14 01:46:15;;;;;;;17.63;11.65;;;;;;;7.06;100.00;102592.06;5024005;28;20025;-74
2021/12/14 01:48:40;;;;;;;16.23;9.95;;;;;;;6.96;100.00;102583.50;5024801;28;20037;-74
2021/12/14 01:51:09;;;;;;;17.17;10.60;;;;;;;7.39;100.00;102610.50;5020721;28;20511;-74
2021/12/14 01:53:37;;;;;;;21.52;9.80;;;;;;;6.83;100.00;102567.03;5025926;28;20036;-74
2021/12/14 01:56:06;;;;;;;16.60;9.45;;;;;;;7.13;100.00;102603.44;5028800;28;20156;-74
2021/12/14 01:58:41;;;;;;;18.55;9.88;;;;;;;6.97;100.00;102555.88;5024320;28;20059;-74
2021/12/14 02:01:14;;;;;;;16.60;9.93;;;;;;;7.27;100.00;102601.13;5026366;28;20056;-73
2021/12/14 02:03:45;;;;;;;17.08;10.02;;;;;;;7.08;100.00;102586.69;5027007;28;20026;-73
2021/12/14 02:06:20;;;;;;;16.58;9.80;;;;;;;7.02;100.00;102588.63;5026438;28;20029;-74
2021/12/14 02:08:46;;;;;;;21.48;12.68;;;;;;;7.32;100.00;102587.59;5028556;28;20028;-73
2021/12/14 02:11:12;;;;;;;19.27;10.55;;;;;;;7.11;100.00;102586.59;5009752;28;20021;-73
2021/12/14 02:13:41;;;;;;;18.33;10.15;;;;;;;7.26;100.00;102580.69;5026551;28;20483;-74
2021/12/14 02:16:08;;;;;;;17.42;10.35;;;;;;;7.20;100.00;102571.09;5025850;28;20025;-74
2021/12/14 02:18:34;;;;;;;20.95;13.02;;;;;;;7.54;100.00;102589.50;5008562;28;20155;-74
2021/12/14 02:21:05;;;;;;;16.27;11.30;;;;;;;7.20;100.00;102580.88;5025542;28;20152;-73
2021/12/14 02:23:32;;;;;;;18.58;10.30;;;;;;;7.16;100.00;102592.59;5026369;28;20036;-74
2021/12/14 02:26:00;;;;;;;23.00;12.85;;;;;;;7.32;100.00;102611.63;5024936;28;20072;-74
2021/12/14 02:28:26;;;;;;;22.50;12.35;;;;;;;7.29;100.00;102628.66;5021275;28;20082;-74
2021/12/14 02:30:54;;;;;;;19.38;10.70;;;;;;;6.89;100.00;102573.94;5023658;28;20025;-74
2021/12/14 02:33:29;;;;;;;23.38;13.75;;;;;;;7.37;100.00;102616.84;5024126;28;20397;-74
2021/12/14 02:35:55;;;;;;;15.90;9.30;;;;;;;7.18;100.00;102593.44;5029186;28;20144;-74
2021/12/14 02:38:21;;;;;;;16.13;9.38;;;;;;;7.07;100.00;102593.81;5010011;28;20028;-74
2021/12/14 02:40:54;;;;;;;19.08;10.18;;;;;;;7.14;100.00;102605.19;5024318;28;20033;-74
2021/12/14 02:43:49;;;;;;;19.58;9.70;;;;;;;7.09;100.00;102612.47;5025451;28;20465;-73
2021/12/14 02:46:22;;;;;;;19.15;9.98;;;;;;;7.10;100.00;102607.06;5023194;28;20412;-74
2021/12/14 02:48:53;;;;;;;17.30;9.63;;;;;;;7.01;100.00;102605.59;5007798;28;20033;-75
2021/12/14 02:51:29;;;;;;;20.75;11.77;;;;;;;7.25;100.00;102597.63;5007962;28;20032;-74
2021/12/14 02:54:05;;;;;;;17.98;9.57;;;;;;;7.00;100.00;102590.50;5026405;28;20040;-74
2021/12/14 02:56:32;;;;;;;18.23;11.63;;;;;;;7.11;100.00;102583.91;5007686;28;20067;-74
2021/12/14 02:59:02;;;;;;;20.95;11.02;;;;;;;7.05;100.00;102591.22;5028851;28;20057;-72
2021/12/14 03:01:28;;;;;;;18.00;10.75;;;;;;;6.95;100.00;102570.22;5024050;28;20389;-74
2021/12/14 03:03:59;;;;;;;19.45;9.18;;;;;;;7.03;100.00;102593.06;5025079;28;20546;-74
2021/12/14 03:06:26;;;;;;;18.85;9.77;;;;;;;7.12;100.00;102582.97;5024522;28;20025;-74
2021/12/14 03:09:07;;;;;;;18.55;9.25;;;;;;;6.93;100.00;102588.94;5026474;28;20034;-74
2021/12/14 03:11:37;;;;;;;17.85;10.95;;;;;;;7.01;100.00;102554.00;5024711;28;20095;-73
2021/12/14 03:14:02;;;;;;;21.02;10.43;;;;;;;6.84;100.00;102522.53;5026263;28;20032;-74
2021/12/14 03:16:32;;;;;;;16.85;10.32;;;;;;;6.91;100.00;102550.75;5024801;28;20041;-74
2021/12/14 03:18:59;;;;;;;14.90;8.25;;;;;;;6.76;100.00;102530.78;5005066;28;20030;-74
2021/12/14 03:21:30;;;;;;;18.25;9.90;;;;;;;6.92;100.00;102539.13;5025051;28;20068;-74
2021/12/14 03:24:00;;;;;;;16.02;8.35;;;;;;;6.89;100.00;102555.25;5020757;28;20095;-74
2021/12/14 03:26:28;;;;;;;16.33;9.45;;;;;;;6.99;100.00;102580.72;5024979;28;20025;-75
2021/12/14 03:28:56;;;;;;;16.95;8.77;;;;;;;6.88;100.00;102550.88;5027420;28;20021;-74
2021/12/14 03:31:34;;;;;;;15.05;8.35;;;;;;;6.91;100.00;102561.41;5029178;28;20109;-74
2021/12/14 03:34:19;;;;;;;21.48;10.95;;;;;;;6.81;100.00;102518.16;5023049;28;20692;-74
2021/12/14 03:36:55;;;;;;;12.82;7.68;;;;;;;6.97;100.00;102566.56;4994972;28;20037;-74
2021/12/14 03:39:35;;;;;;;16.98;9.05;;;;;;;6.87;100.00;102559.81;5026748;28;20044;-74
2021/12/14 03:42:08;;;;;;;17.65;10.52;;;;;;;7.18;100.00;102542.66;5029792;28;20087;-73
2021/12/14 03:44:44;;;;;;;16.40;8.23;;;;;;;6.86;100.00;102510.84;5030497;28;20055;-73
2021/12/14 03:47:13;;;;;;;15.35;9.75;;;;;;;7.27;100.00;102576.22;5012716;28;20389;-74
2021/12/14 03:49:42;;;;;;;13.98;7.07;;;;;;;6.96;100.00;102574.63;5030239;28;20104;-74
2021/12/14 03:52:15;;;;;;;15.90;7.47;;;;;;;6.69;100.00;102547.97;5028654;28;20025;-74
2021/12/14 03:54:41;;;;;;;15.00;7.28;;;;;;;6.85;100.00;102585.69;5030869;28;20021;-74
2021/12/14 03:57:07;;;;;;;13.57;7.50;;;;;;;6.81;100.00;102603.59;5029509;28;20028;-74
2021/12/14 03:59:32;;;;;;;15.30;6.65;;;;;;;6.77;100.00;102601.09;5011133;28;20026;-73
2021/12/14 04:02:01;;;;;;;12.63;7.13;;;;;;;6.80;100.00;102598.31;5026627;28;20042;-73
2021/12/14 04:04:32;;;;;;;12.20;7.15;;;;;;;6.82;100.00;102605.34;5029724;28;20033;-74
2021/12/14 04:06:59;;;;;;;13.18;6.60;;;;;;;6.66;100.00;102599.63;5027007;28;20056;-75
2021/12/14 04:09:28;;;;;;;13.95;7.63;;;;;;;6.79;100.00;102610.78;5028965;28;20124;-73
2021/12/14 04:11:54;;;;;;;11.43;6.22;;;;;;;6.70;100.00;102597.75;5027161;28;20036;-74
2021/12/14 04:14:21;;;;;;;9.50;5.43;;;;;;;6.59;100.00;102595.44;5029843;28;20036;-74
2021/12/14 04:16:49;;;;;;;11.80;6.35;;;;;;;6.78;100.00;102608.16;5027785;28;20358;-74
2021/12/14 04:19:21;;;;;;;11.15;6.50;;;;;;;6.41;100.00;102564.88;5011616;28;20025;-75
2021/12/14 04:21:46;;;;;;;12.00;6.03;;;;;;;6.47;100.00;102550.47;5029979;28;20072;-74
2021/12/14 04:24:12;;;;;;;12.85;7.35;;;;;;;6.81;100.00;102598.25;5034409;28;20052;-72
2021/12/14 04:26:44;;;;;;;11.60;6.80;;;;;;;6.70;100.00;102587.94;5027239;28;20029;-74
2021/12/14 04:29:12;;;;;;;14.18;7.50;;;;;;;6.27;100.00;102544.00;5028501;28;20409;-74
2021/12/14 04:31:38;;;;;;;11.93;6.78;;;;;;;6.74;100.00;102568.22;5026795;28;20028;-74
2021/12/14 04:34:04;;;;;;;15.65;6.60;;;;;;;6.79;100.00;102593.91;5011849;28;20033;-74
2021/12/14 04:36:30;;;;;;;13.48;6.85;;;;;;;6.67;100.00;102580.03;5027413;28;20033;-74
2021/12/14 04:39:06;;;;;;;16.17;6.40;;;;;;;7.08;100.00;102581.34;5029092;28;20453;-74
2021/12/14 04:52:39;;;;;;;12.43;6.18;;;;;;;6.85;100.00;102578.53;5028667;28;20476;-74
2021/12/14 04:55:08;;;;;;;14.95;7.18;;;;;;;6.77;100.00;102580.59;5028021;28;20099;-74
2021/12/14 04:57:37;;;;;;;12.75;6.40;;;;;;;6.58;100.00;102562.53;5025971;28;20025;-74
2021/12/14 05:00:23;;;;;;;15.80;7.97;;;;;;;6.74;100.00;102581.56;5028734;28;20104;-74
2021/12/14 05:02:49;;;;;;;13.65;6.85;;;;;;;6.69;100.00;102577.31;5009634;28;20028;-74
2021/12/14 05:05:22;;;;;;;14.45;6.78;;;;;;;6.66;100.00;102574.75;5028333;28;20405;-74
2021/12/14 05:10:57;;;;;;;15.05;7.72;;;;;;;6.45;100.00;102534.53;5022029;28;20029;-74
2021/12/14 05:13:25;;;;;;;16.92;7.80;;;;;;;6.48;100.00;102529.09;5009208;28;20045;-74
2021/12/14 05:15:51;;;;;;;17.05;8.57;;;;;;;6.74;100.00;102573.56;5027155;28;20045;-73
2021/12/14 05:18:16;;;;;;;16.45;7.80;;;;;;;6.70;100.00;102555.91;5026453;28;20481;-73
2021/12/14 05:20:47;;;;;;;16.90;7.65;;;;;;;6.40;100.00;102523.97;5008339;28;20031;-74
2021/12/14 05:23:26;;;;;;;16.00;8.30;;;;;;;6.59;100.00;102558.06;5026412;28;20033;-74
2021/12/14 05:25:52;;;;;;;15.40;6.78;;;;;;;6.49;100.00;102541.47;5024277;28;20029;-74
2021/12/14 05:28:20;;;;;;;15.82;7.90;;;;;;;6.38;100.00;102514.28;5024953;28;20033;-74
2021/12/14 05:30:47;;;;;;;14.82;7.00;;;;;;;6.38;100.00;102540.97;5027963;28;20068;-74
2021/12/14 05:33:33;;;;;;;17.60;8.77;;;;;;;6.41;100.00;102516.84;5008931;28;20163;-74
2021/12/14 05:36:05;;;;;;;18.85;8.90;;;;;;;6.20;100.00;102503.31;5026475;28;20021;-74
2021/12/14 05:38:46;;;;;;;17.65;9.35;;;;;;;6.33;100.00;102529.56;5027489;28;20432;-74
2021/12/14 05:43:06;;;;;;;20.67;9.35;;;;;;;6.73;100.00;102558.47;5027990;28;20044;-73
2021/12/14 05:44:01;;;;;;;20.52;10.73;;;;;;;6.77;100.00;102561.03;5009968;28;20038;-73
2021/12/14 05:46:26;;;;;;;24.42;10.98;;;;;;;6.76;100.00;102560.16;5026796;28;20029;-73
2021/12/14 05:48:58;;;;;;;23.40;10.63;;;;;;;6.66;100.00;102562.25;5025074;28;20037;-74
2021/12/14 05:51:24;;;;;;;24.70;10.75;;;;;;;6.64;100.00;102539.22;5026520;28;20112;-72
2021/12/14 05:53:49;;;;;;;22.80;11.63;;;;;;;6.66;100.00;102550.72;5007148;28;20112;-73
2021/12/14 05:56:17;;;;;;;23.73;9.48;;;;;;;6.29;100.00;102529.66;5028928;28;20083;-74
2021/12/14 05:58:43;;;;;;;18.95;8.90;;;;;;;6.28;100.00;102546.59;5026427;28;20492;-74
2021/12/14 06:01:12;;;;;;;22.35;10.32;;;;;;;6.48;100.00;102569.09;4990706;28;20109;-74
2021/12/14 06:03:46;;;;;;;25.17;9.68;;;;;;;6.33;100.00;102546.47;5008938;28;20021;-74
2021/12/14 06:06:29;;;;;;;21.17;8.63;;;;;;;6.21;100.00;102542.41;5026617;28;20049;-74
2021/12/14 06:09:10;;;;;;;23.73;10.32;;;;;;;6.60;100.00;102595.38;5008762;28;20757;-74
2021/12/14 06:11:36;;;;;;;26.65;11.43;;;;;;;6.47;100.00;102588.72;5024540;28;20021;-73
2021/12/14 06:14:02;;;;;;;26.42;12.05;;;;;;;6.66;100.00;102590.75;5010313;28;20083;-73
2021/12/14 06:16:31;;;;;;;22.40;9.88;;;;;;;6.40;100.00;102572.00;5026687;28;20029;-74
2021/12/14 06:19:21;;;;;;;23.35;11.10;;;;;;;6.49;100.00;102583.31;5027279;28;20500;-75
2021/12/14 06:22:12;;;;;;;22.40;9.82;;;;;;;6.60;100.00;102579.38;5024404;28;20017;-73
2021/12/14 06:24:46;;;;;;;26.23;11.32;;;;;;;6.45;100.00;102562.06;5016301;28;20396;-74
2021/12/14 06:27:14;;;;;;;30.27;12.38;;;;;;;6.42;100.00;102587.97;5025913;28;20026;-74
2021/12/14 06:29:47;;;;;;;29.05;13.10;;;;;;;6.54;100.00;102613.41;5021654;28;20044;-73
2021/12/14 06:32:19;;;;;;;26.05;11.27;;;;;;;6.54;100.00;102608.91;5024480;28;20413;-74
2021/12/14 06:34:54;;;;;;;31.48;15.35;;;;;;;6.54;100.00;102582.22;5009954;28;20021;-73
2021/12/14 06:37:53;;;;;;;36.53;14.40;;;;;;;6.68;100.00;102618.28;5024183;28;20033;-73
2021/12/14 06:40:26;;;;;;;24.58;10.95;;;;;;;6.58;100.00;102605.22;5025080;28;20034;-74
2021/12/14 06:42:58;;;;;;;29.52;13.52;;;;;;;6.61;100.00;102596.28;5022178;28;20029;-74
2021/12/14 06:45:28;;;;;;;26.27;10.23;;;;;;;6.40;100.00;102579.16;5023580;28;20393;-74
2021/12/14 06:48:03;;;;;;;31.73;12.13;;;;;;;6.52;100.00;102599.22;5023243;28;20026;-74
2021/12/14 06:50:34;;;;;;;27.50;10.82;;;;;;;6.34;100.00;102574.00;5022584;28;20033;-74
2021/12/14 06:53:06;;;;;;;29.02;11.85;;;;;;;6.72;100.00;102626.13;5013935;28;20021;-74
2021/12/14 06:55:33;;;;;;;30.38;12.38;;;;;;;6.56;100.00;102611.56;5023370;28;20026;-74
2021/12/14 06:58:16;;;;;;;27.27;10.50;;;;;;;6.44;100.00;102618.16;5003239;28;20065;-74
2021/12/14 07:00:46;;;;;;;27.10;11.32;;;;;;;6.31;100.00;102583.00;5020688;28;20021;-74
2021/12/14 07:03:12;;;;;;;29.55;11.90;;;;;;;6.53;100.00;102616.97;5022094;28;20068;-75
2021/12/14 07:05:40;;;;;;;29.70;12.57;;;;;;;6.47;100.00;102603.84;5006366;28;20480;-74
2021/12/14 07:08:15;;;;;;;29.33;11.10;;;;;;;6.34;100.00;102577.56;5023145;28;20045;-74
2021/12/14 07:10:43;;;;;;;26.98;12.07;;;;;;;6.56;100.00;102632.91;5021464;28;20060;-74
2021/12/14 07:13:12;;;;;;;34.35;16.20;;;;;;;6.78;100.00;102651.75;5025202;28;20040;-75
2021/12/14 07:15:38;;;;;;;29.25;12.55;;;;;;;6.54;100.00;102592.91;5005490;28;20029;-74
2021/12/14 07:18:05;;;;;;;34.53;14.85;;;;;;;6.96;100.00;102649.41;5021453;28;20040;-74
2021/12/14 07:20:34;;;;;;;26.27;11.45;;;;;;;6.37;100.00;102598.78;5021629;28;20037;-75
2021/12/14 07:23:15;;;;;;;31.60;13.40;;;;;;;6.47;100.00;102619.84;5022482;28;20029;-74
2021/12/14 07:25:41;;;;;;;28.98;11.98;;;;;;;6.49;100.00;102642.88;5008224;28;20091;-74
2021/12/14 07:28:07;;;;;;;33.30;13.60;;;;;;;6.64;100.00;102657.53;5020816;28;20034;-75
2021/12/14 07:30:36;;;;;;;35.25;13.68;;;;;;;6.65;100.00;102667.28;5021109;28;20030;-74
2021/12/14 07:33:09;;;;;;;30.48;12.13;;;;;;;6.59;100.00;102655.00;5018466;28;20382;-74
2021/12/14 07:35:46;;;;;;;33.00;12.63;;;;;;;6.54;100.00;102672.09;5022737;28;20103;-74
2021/12/14 07:38:29;;;;;;;30.35;11.80;;;;;;;6.55;100.00;102673.84;5006520;28;20076;-74
2021/12/14 07:41:03;;;;;;;30.77;12.98;;;;;;;6.43;100.00;102667.97;5002010;28;20029;-75
2021/12/14 07:43:38;;;;;;;30.08;12.00;;;;;;;6.55;100.00;102658.69;5022947;28;20037;-74
2021/12/14 07:46:36;;;;;;;36.55;14.18;;;;;;;6.64;100.00;102691.38;5003471;28;20040;-74
2021/12/14 07:49:07;;;;;;;35.05;13.77;;;;;;;6.44;100.00;102655.50;4998719;28;20164;-74
2021/12/14 07:51:34;;;;;;;32.25;12.70;;;;;;;6.30;100.00;102637.28;5017336;28;20017;-75
2021/12/14 07:54:13;;;;;;;35.20;14.25;;;;;;;6.32;100.00;102647.88;4987704;28;20554;-74
2021/12/14 07:56:46;;;;;;;40.30;16.13;;;;;;;6.63;100.00;102642.44;4959360;28;20084;-74
2021/12/14 07:59:36;;;;;;;30.38;13.15;;;;;;;6.71;100.00;102687.59;4950623;28;20042;-75
2021/12/14 08:02:21;;;;;;;30.73;12.07;;;;;;;6.57;100.00;102675.53;4959671;28;20031;-74
2021/12/14 08:05:11;;;;;;;37.72;14.35;;;;;;;6.34;100.00;102659.38;4957715;28;20023;-75
2021/12/14 08:07:40;;;;;;;34.45;13.40;;;;;;;6.72;100.00;102700.03;4939435;28;20391;-74
2021/12/14 08:10:12;;;;;;;36.13;14.48;;;;;;;6.78;100.00;102702.47;4957235;28;20034;-74
2021/12/14 08:13:11;;;;;;;40.63;16.90;;;;;;;6.84;100.00;102704.09;4953806;28;20034;-73
2021/12/14 08:15:41;;;;;;;38.58;14.30;;;;;;;6.52;100.00;102671.28;4945531;28;20034;-75
2021/12/14 08:18:14;;;;;;;41.67;16.02;;;;;;;6.61;100.00;102687.00;4955067;28;20033;-74
2021/12/14 08:21:03;;;;;;;40.10;14.73;;;;;;;6.71;100.00;102711.63;4954472;28;20031;-75
2021/12/14 08:23:31;;;;;;;45.97;17.60;;;;;;;6.92;100.00;102712.72;4959355;28;20526;-74
2021/12/14 08:26:15;;;;;;;39.85;14.85;;;;;;;6.35;100.00;102653.13;4955314;28;20023;-74
2021/12/14 08:29:02;;;;;;;37.08;14.15;;;;;;;6.75;100.00;102713.28;4959295;28;20150;-75
2021/12/14 08:31:53;;;;;;;41.65;16.80;;;;;;;6.85;100.00;102705.84;4956449;28;20073;-74
2021/12/14 08:34:29;;;;;;;55.05;21.38;;;;;;;6.93;100.00;102695.75;4956339;28;20050;-74
2021/12/14 08:37:18;;;;;;;43.08;15.93;;;;;;;6.74;100.00;102684.81;4957171;28;20026;-74
2021/12/14 08:40:02;;;;;;;51.45;23.00;;;;;;;7.10;100.00;102708.56;4968052;28;20030;-74
2021/12/14 08:42:53;;;;;;;51.33;20.33;;;;;;;7.02;100.00;102683.91;4960167;28;20051;-74
2021/12/14 08:45:26;;;;;;;38.72;15.43;;;;;;;6.66;100.00;102685.03;4957248;28;20038;-75
2021/12/14 08:47:52;;;;;;;42.55;15.52;;;;;;;6.98;100.00;102714.31;4955686;28;20031;-75
2021/12/14 08:50:18;;;;;;;52.10;19.33;;;;;;;6.99;100.00;102694.72;4962769;28;20033;-74
2021/12/14 08:52:43;;;;;;;42.10;14.57;;;;;;;6.90;100.00;102707.44;4960261;28;20443;-75
2021/12/14 08:55:11;;;;;;;44.92;15.18;;;;;;;6.70;100.00;102673.34;4962426;28;20463;-74
2021/12/14 08:57:38;;;;;;;43.28;16.27;;;;;;;7.08;100.00;102707.75;4956070;28;20499;-75
2021/12/14 09:00:12;;;;;;;40.25;16.08;;;;;;;7.11;100.00;102706.78;4958158;28;20403;-73
2021/12/14 09:02:39;;;;;;;42.45;17.15;;;;;;;6.97;100.00;102704.56;4958209;28;20035;-74
2021/12/14 09:05:14;;;;;;;55.95;23.58;;;;;;;7.19;100.00;102710.06;4944646;28;20386;-74
2021/12/14 09:07:39;;;;;;;43.42;16.33;;;;;;;6.86;100.00;102692.44;4955007;28;20026;-74
2021/12/14 09:10:11;;;;;;;45.33;16.00;;;;;;;7.12;100.00;102706.72;4961259;28;20038;-73
2021/12/14 09:12:39;;;;;;;46.80;18.42;;;;;;;7.17;100.00;102696.75;4958641;28;20037;-74
2021/12/14 09:15:23;;;;;;;53.40;22.88;;;;;;;7.10;100.00;102689.00;4964231;28;20026;-75
2021/12/14 09:17:50;;;;;;;53.30;22.52;;;;;;;7.24;100.00;102708.09;4942596;28;20030;-74
2021/12/14 09:20:37;;;;;;;52.80;19.80;;;;;;;7.17;100.00;102683.41;4957088;28;20464;-73
2021/12/14 09:23:13;;;;;;;47.63;17.52;;;;;;;7.27;100.00;102707.16;4957318;28;20502;-74
2021/12/14 09:25:39;;;;;;;56.13;21.80;;;;;;;7.24;100.00;102718.78;4966182;28;20035;-74
2021/12/14 09:28:06;;;;;;;56.47;22.63;;;;;;;7.31;100.00;102722.13;4955322;28;20035;-66
2021/12/14 09:30:35;;;;;;;52.92;19.73;;;;;;;7.08;100.00;102697.06;4957261;28;20644;-67
2021/12/14 09:33:01;;;;;;;54.15;20.70;;;;;;;7.29;100.00;102721.28;4956448;28;20026;-68
2021/12/14 09:35:30;;;;;;;49.30;21.42;;;;;;;7.28;100.00;102736.47;4957018;28;20046;-67
2021/12/14 09:37:57;;;;;;;53.50;21.42;;;;;;;7.57;100.00;102715.88;4955593;28;20030;-67
2021/12/14 09:40:46;;;;;;;53.45;21.20;;;;;;;7.39;100.00;102719.22;4957688;28;20038;-74
2021/12/14 09:43:12;;;;;;;47.17;18.38;;;;;;;7.41;100.00;102704.84;4957780;28;20034;-75
2021/12/14 09:45:44;;;;;;;46.55;19.80;;;;;;;7.07;100.00;102667.75;4952547;28;20035;-68
2021/12/14 09:48:16;;;;;;;45.28;17.38;;;;;;;7.21;100.00;102673.47;4957646;28;20019;-68
2021/12/14 09:50:43;;;;;;;53.40;19.05;;;;;;;7.20;100.00;102674.41;4952952;28;20031;-68
2021/12/14 09:53:13;;;;;;;49.15;20.25;;;;;;;7.48;100.00;102694.81;4953439;28;20035;-67
2021/12/14 09:55:41;;;;;;;49.55;19.35;;;;;;;7.51;100.00;102673.34;4955498;28;20121;-67
2021/12/14 09:58:20;;;;;;;47.83;20.40;;;;;;;7.35;100.00;102673.88;4954015;28;20039;-67
2021/12/14 10:01:19;;;;;;;49.70;19.58;;;;;;;7.45;100.00;102679.78;4952609;28;20035;-68
2021/12/14 10:03:48;;;;;;;46.97;20.23;;;;;;;7.55;100.00;102698.16;4948480;28;20047;-67
2021/12/14 10:06:17;;;;;;;51.33;19.17;;;;;;;7.59;100.00;102675.72;4944829;28;20034;-68
2021/12/14 10:08:47;;;;;;;50.88;21.30;;;;;;;7.59;100.00;102659.69;4955919;28;20034;-74
2021/12/14 10:11:25;;;;;;;47.83;20.35;;;;;;;7.93;100.00;102722.66;4958793;28;20027;-74
2021/12/14 10:13:53;;;;;;;51.80;20.95;;;;;;;8.04;100.00;102712.44;4956884;28;20038;-68
2021/12/14 10:16:18;;;;;;;54.20;23.83;;;;;;;8.01;100.00;102704.53;4958225;28;20105;-68
2021/12/14 10:18:50;;;;;;;48.40;21.38;;;;;;;7.89;100.00;102694.25;4954326;28;20478;-67
2021/12/14 10:21:21;;;;;;;51.42;19.38;;;;;;;7.98;100.00;102712.66;4936843;28;20027;-68
2021/12/14 10:23:49;;;;;;;49.90;19.20;;;;;;;7.87;100.00;102698.78;4956021;28;20113;-67
2021/12/14 10:26:16;;;;;;;54.78;20.55;;;;;;;7.99;100.00;102718.88;4959174;28;20064;-68
2021/12/14 10:28:45;;;;;;;49.33;18.23;;;;;;;8.13;100.00;102704.97;4954027;28;20383;-68
2021/12/14 10:31:18;;;;;;;51.80;20.17;;;;;;;7.95;100.00;102707.41;4955089;28;20026;-67
2021/12/14 10:33:44;;;;;;;50.65;19.90;;;;;;;8.06;100.00;102717.72;4935741;28;20041;-67
2021/12/14 10:36:32;;;;;;;44.38;18.00;;;;;;;8.07;100.00;102722.13;4954717;28;20057;-68
2021/12/14 10:39:07;;;;;;;53.47;22.48;;;;;;;7.78;100.00;102670.59;4958319;28;20027;-67
2021/12/14 10:44:20;;;;;;;56.63;25.30;;;;;;;8.01;100.00;102698.28;4953218;28;20134;-67
2021/12/14 10:46:49;;;;;;;53.00;20.70;;;;;;;7.87;100.00;102697.00;4936259;28;20027;-68
2021/12/14 10:49:17;;;;;;;48.33;19.67;;;;;;;8.02;100.00;102716.06;4948544;28;20045;-68
2021/12/14 10:51:45;;;;;;;56.30;25.90;;;;;;;8.12;100.00;102722.84;4955607;28;20532;-67
2021/12/14 10:54:13;;;;;;;64.57;28.95;;;;;;;8.14;100.00;102721.00;4949843;28;20042;-67
2021/12/14 10:56:44;;;;;;;49.55;20.67;;;;;;;8.25;100.00;102729.47;4960261;28;20031;-67
2021/12/14 10:59:15;;;;;;;51.08;18.38;;;;;;;8.11;100.00;102707.72;4951667;28;20145;-69
2021/12/14 11:01:48;;;;;;;49.92;20.17;;;;;;;8.20;100.00;102711.84;4953997;28;20671;-67
2021/12/14 11:04:14;;;;;;;49.83;19.20;;;;;;;8.15;100.00;102701.31;4956781;28;20034;-68
2021/12/14 11:06:43;;;;;;;57.58;23.27;;;;;;;8.37;100.00;102717.41;4951002;28;20062;-67
2021/12/14 11:11:50;;;;;;;49.60;19.55;;;;;;;8.41;100.00;102715.53;4954119;28;20043;-68
2021/12/14 11:14:22;;;;;;;55.83;22.33;;;;;;;8.23;100.00;102706.38;4950883;28;20086;-67
2021/12/14 11:19:52;;;;;;;60.90;25.17;;;;;;;8.36;100.00;102701.44;4957728;28;20038;-67
2021/12/14 11:22:21;;;;;;;62.90;27.73;;;;;;;8.48;100.00;102703.66;4959910;28;20026;-72
2021/12/14 11:24:50;;;;;;;61.63;28.02;;;;;;;8.48;100.00;102702.75;4954971;28;20027;-74
2021/12/14 11:27:25;;;;;;;49.28;19.92;;;;;;;8.28;100.00;102679.44;4959257;28;20042;-74
2021/12/14 11:30:15;;;;;;;64.10;27.30;;;;;;;8.48;100.00;102690.25;4940368;28;20031;-75
2021/12/14 11:32:43;;;;;;;56.35;22.58;;;;;;;8.66;100.00;102696.69;4943843;28;20037;-75
2021/12/14 11:35:28;;;;;;;55.38;22.08;;;;;;;8.74;100.00;102693.72;4955633;28;20526;-74
2021/12/14 11:37:55;;;;;;;60.65;24.35;;;;;;;8.68;100.00;102676.09;4956597;28;20047;-75
2021/12/14 11:40:23;;;;;;;59.67;24.02;;;;;;;8.70;100.00;102700.16;4943693;28;20027;-74
2021/12/14 11:42:51;;;;;;;60.63;25.38;;;;;;;8.64;100.00;102690.53;4960444;28;20026;-67
2021/12/14 11:45:20;;;;;;;58.88;24.55;;;;;;;8.75;100.00;102690.09;4958644;28;20035;-67
2021/12/14 11:47:52;;;;;;;63.95;28.52;;;;;;;8.68;100.00;102684.13;4961910;28;20061;-66
2021/12/14 11:50:23;;;;;;;57.60;26.40;;;;;;;8.87;100.00;102682.50;4963472;28;20053;-67
2021/12/14 11:53:00;;;;;;;66.40;27.77;;;;;;;8.74;100.00;102687.50;4960312;28;20030;-67
2021/12/14 11:55:46;;;;;;;63.25;28.38;;;;;;;8.72;100.00;102686.69;4964527;28;20034;-66
2021/12/14 11:58:30;;;;;;;59.42;21.98;;;;;;;8.63;100.00;102694.13;4964711;28;20117;-67
2021/12/14 12:01:04;;;;;;;58.10;22.98;;;;;;;8.70;100.00;102692.13;4960452;28;20022;-68
2021/12/14 12:03:43;;;;;;;58.60;24.90;;;;;;;8.65;100.00;102694.09;4961058;28;20672;-67